Time;durP1;ratioP1;P1;durP2;ratioP2;P2;SDS_P1;SDS_P2;PMS_P1;PMS_P2;Temp;Humidity;BMP_temperature;BMP_pressure;BME280_temperature;BME280_humidity;BME280_pressure;Samples;Min_cycle;Max_cycle;Signal;HPM_P1;HPM_P2
2021/05/11 00:01:24;;;;;;;;;;;;;;;-142.75;62.66;76901.00;5041920;28;19917;-79
2021/05/11 00:03:51;;;;;;;;;;;;;;;-142.75;62.80;76914.78;5045293;28;19924;-78
2021/05/11 00:06:16;;;;;;;;;;;;;;;-142.75;63.73;76932.50;5048460;28;19917;-77
2021/05/11 00:08:42;;;;;;;;;;;;;;;-142.75;63.88;76938.41;5045568;28;19917;-78
2021/05/11 00:11:07;;;;;;;;;;;;;;;-142.75;64.29;76950.22;5060750;28;20516;-78
2021/05/11 00:13:32;;;;;;;;;;;;;;;-142.75;64.16;76956.13;5044353;28;19921;-78
2021/05/11 00:15:59;;;;;;;;;;;;;;;-142.75;64.30;76954.16;5064558;28;19928;-77
2021/05/11 00:18:24;;;;;;;;;;;;;;;-142.75;64.15;76936.44;5045854;28;19927;-77
2021/05/11 00:20:50;;;;;;;;;;;;;;;-142.75;64.11;76940.38;5051226;28;20293;-77
2021/05/11 00:23:15;;;;;;;;;;;;;;;-142.75;64.42;76940.38;5048939;28;19925;-78
2021/05/11 00:25:40;;;;;;;;;;;;;;;-142.75;64.44;76958.09;5062512;28;20016;-77
2021/05/11 00:28:06;;;;;;;;;;;;;;;-142.75;64.66;76964.00;5050657;28;19939;-76
2021/05/11 00:30:31;;;;;;;;;;;;;;;-142.75;65.48;76975.81;5042877;28;19916;-77
2021/05/11 00:32:56;;;;;;;;;;;;;;;-142.75;65.79;76985.66;5053309;28;19972;-78
2021/05/11 00:35:25;;;;;;;;;;;;;;;-142.75;65.27;76991.56;5064647;28;19923;-78
2021/05/11 00:37:50;;;;;;;;;;;;;;;-142.75;64.75;76979.75;5049667;28;20385;-77
2021/05/11 00:40:15;;;;;;;;;;;;;;;-142.75;65.03;76981.72;5067078;28;19917;-77
2021/05/11 00:42:41;;;;;;;;;;;;;;;-142.75;65.21;76987.63;5048262;28;19946;-78
2021/05/11 00:45:07;;;;;;;;;;;;;;;-142.75;65.52;76991.56;5066262;28;19920;-78
2021/05/11 00:47:34;;;;;;;;;;;;;;;-142.75;65.54;76991.56;5053196;28;20320;-77
2021/05/11 00:50:03;;;;;;;;;;;;;;;-142.75;65.80;77001.41;5048455;28;20358;-77
2021/05/11 00:52:29;;;;;;;;;;;;;;;-142.75;65.78;76999.44;5044685;28;19921;-77
2021/05/11 00:54:54;;;;;;;;;;;;;;;-142.75;65.29;76993.53;5065877;28;19916;-78
2021/05/11 00:57:20;;;;;;;;;;;;;;;-142.75;65.33;76997.47;5046705;28;19916;-77
2021/05/11 00:59:48;;;;;;;;;;;;;;;-142.75;65.54;77003.38;5044092;28;19959;-77
2021/05/11 01:02:14;;;;;;;;;;;;;;;-142.75;65.62;77003.38;5050766;28;19948;-77
2021/05/11 01:04:42;;;;;;;;;;;;;;;-142.75;65.31;77003.38;5046090;28;19917;-77
2021/05/11 01:07:08;;;;;;;;;;;;;;;-142.75;65.12;76999.44;5051206;28;19966;-77
2021/05/11 01:09:36;;;;;;;;;;;;;;;-142.75;65.07;76997.47;5048927;28;19920;-78
2021/05/11 01:12:05;;;;;;;;;;;;;;;-142.75;65.04;77003.38;5049023;28;19917;-77
2021/05/11 01:14:30;;;;;;;;;;;;;;;-142.75;65.61;77015.19;5046353;28;20000;-77
2021/05/11 01:16:58;;;;;;;;;;;;;;;-142.75;65.76;77021.09;5045067;28;20017;-78
2021/05/11 01:19:42;;;;;;;;;;;;;;;-142.75;65.58;77017.16;5051379;28;19923;-77
2021/05/11 01:24:41;;;;;;;;;;;;;;;-142.75;65.86;77009.28;5064506;28;19925;-79
2021/05/11 01:27:24;;;;;;;;;;;;;;;-142.75;65.80;77009.28;5047375;28;19923;-77
2021/05/11 01:33:01;;;;;;;;;;;;;;;-142.75;65.87;77025.03;5066038;28;19946;-78
2021/05/11 01:49:16;;;;;;;;;;;;;;;-142.75;66.28;77070.31;5053698;28;19985;-78
2021/05/11 01:54:34;;;;;;;;;;;;;;;-142.75;66.51;77080.16;5063343;28;19951;-78
2021/05/11 02:11:09;;;;;;;;;;;;;;;-142.75;66.51;77084.09;5060865;28;19962;-78
2021/05/11 02:24:44;;;;;;;;;;;;;;;-142.75;66.34;77123.47;5066322;28;19923;-78
2021/05/11 02:27:13;;;;;;;;;;;;;;;-142.75;66.80;77129.38;5044977;28;19917;-78
2021/05/11 02:29:38;;;;;;;;;;;;;;;-142.75;67.15;77137.25;5049925;28;19917;-78
2021/05/11 02:32:03;;;;;;;;;;;;;;;-142.75;67.19;77137.25;5044395;28;19927;-77
2021/05/11 02:34:31;;;;;;;;;;;;;;;-142.75;67.33;77145.13;5042731;28;19940;-77
2021/05/11 02:36:57;;;;;;;;;;;;;;;-142.75;67.70;77133.31;5045047;28;20007;-78
2021/05/11 02:39:25;;;;;;;;;;;;;;;-142.75;68.25;77123.47;5042062;28;19971;-77
2021/05/11 02:41:58;;;;;;;;;;;;;;;-142.75;68.30;77125.44;5045883;28;19924;-78
2021/05/11 02:44:41;;;;;;;;;;;;;;;-142.75;67.92;77125.44;5043674;28;19924;-78
2021/05/11 02:47:10;;;;;;;;;;;;;;;-142.75;67.52;77117.56;5044221;28;20067;-78
2021/05/11 02:49:39;;;;;;;;;;;;;;;-142.75;67.63;77113.63;5048816;28;19963;-79
2021/05/11 02:52:07;;;;;;;;;;;;;;;-142.75;67.29;77121.50;5041088;28;19917;-78
2021/05/11 02:54:33;;;;;;;;;;;;;;;-142.75;67.36;77121.50;5044125;28;19924;-77
2021/05/11 02:56:58;;;;;;;;;;;;;;;-142.75;67.23;77121.50;5047865;28;19917;-77
2021/05/11 02:59:32;;;;;;;;;;;;;;;-142.75;67.03;77117.56;5042859;28;19986;-77
2021/05/11 03:02:00;;;;;;;;;;;;;;;-142.75;66.52;77129.38;5042790;28;20264;-77
2021/05/11 03:04:31;;;;;;;;;;;;;;;-142.75;66.57;77141.19;5043611;28;19916;-77
2021/05/11 03:06:57;;;;;;;;;;;;;;;-142.75;66.74;77141.19;5043874;28;19917;-78
2021/05/11 03:09:25;;;;;;;;;;;;;;;-142.75;66.86;77156.94;5038318;28;20271;-76
2021/05/11 03:11:51;;;;;;;;;;;;;;;-142.75;66.84;77168.75;5042854;28;19916;-78
2021/05/11 03:14:23;;;;;;;;;;;;;;;-142.75;66.89;77170.72;5045903;28;19947;-78
2021/05/11 03:16:49;;;;;;;;;;;;;;;-142.75;67.03;77180.56;5041391;28;19963;-77
2021/05/11 03:19:15;;;;;;;;;;;;;;;-142.75;67.27;77188.44;5046460;28;19916;-77
2021/05/11 03:21:43;;;;;;;;;;;;;;;-142.75;67.32;77190.41;5039297;28;19917;-76
2021/05/11 03:24:17;;;;;;;;;;;;;;;-142.75;67.59;77194.34;5044276;28;19923;-76
2021/05/11 03:26:46;;;;;;;;;;;;;;;-142.75;68.27;77192.38;5061580;28;19924;-77
2021/05/11 03:29:25;;;;;;;;;;;;;;;-142.75;68.92;77184.50;5040546;28;19917;-77
2021/05/11 03:31:50;;;;;;;;;;;;;;;-142.75;69.44;77162.84;5044769;28;19917;-76
2021/05/11 03:34:21;;;;;;;;;;;;;;;-142.75;69.55;77145.13;5043004;28;20020;-77
2021/05/11 03:36:50;;;;;;;;;;;;;;;-142.75;70.08;77129.38;5041800;28;19920;-77
2021/05/11 03:39:16;;;;;;;;;;;;;;;-142.75;69.81;77133.31;5045420;28;19921;-77
2021/05/11 03:41:51;;;;;;;;;;;;;;;-142.75;69.31;77141.19;5061992;28;20263;-77
2021/05/11 03:44:22;;;;;;;;;;;;;;;-142.75;68.49;77156.94;5045992;28;20362;-77
2021/05/11 03:46:50;;;;;;;;;;;;;;;-142.75;67.82;77168.75;5041565;28;19962;-77
2021/05/11 03:49:19;;;;;;;;;;;;;;;-142.75;67.96;77176.63;5048875;28;19916;-77
2021/05/11 03:51:49;;;;;;;;;;;;;;;-142.75;67.68;77182.53;5047288;28;20007;-77
2021/05/11 03:54:24;;;;;;;;;;;;;;;-142.75;67.79;77184.50;5049910;28;19921;-76
2021/05/11 03:56:52;;;;;;;;;;;;;;;-142.75;67.93;77196.31;5046481;28;19924;-77
2021/05/11 03:59:20;;;;;;;;;;;;;;;-142.75;67.93;77184.50;5047304;28;19921;-77
2021/05/11 04:01:46;;;;;;;;;;;;;;;-142.75;67.91;77188.44;5050045;28;19922;-78
2021/05/11 04:04:11;;;;;;;;;;;;;;;-142.75;67.93;77180.56;5066688;28;20011;-77
2021/05/11 04:06:37;;;;;;;;;;;;;;;-142.75;68.67;77158.91;5044398;28;19927;-77
2021/05/11 04:11:56;;;;;;;;;;;;;;;-142.75;68.57;77164.81;5064027;28;19924;-78
2021/05/11 04:17:10;;;;;;;;;;;;;;;-142.75;68.04;77153.00;5068330;28;19923;-78
2021/05/11 04:19:43;;;;;;;;;;;;;;;-142.75;67.94;77143.16;5064897;28;19917;-77
2021/05/11 04:22:11;;;;;;;;;;;;;;;-142.75;68.00;77135.28;5067813;28;19917;-77
2021/05/11 04:24:41;;;;;;;;;;;;;;;-142.75;67.78;77141.19;5048243;28;20370;-77
2021/05/11 04:27:07;;;;;;;;;;;;;;;-142.75;67.81;77145.13;5087265;22;20304;-78
2021/05/11 04:29:34;;;;;;;;;;;;;;;-142.75;68.33;77153.00;5054152;28;20382;-78
2021/05/11 04:31:59;;;;;;;;;;;;;;;-142.75;68.52;77141.19;5074304;28;19972;-78
2021/05/11 04:34:24;;;;;;;;;;;;;;;-142.75;68.53;77137.25;5069613;28;19921;-78
2021/05/11 04:36:49;;;;;;;;;;;;;;;-142.75;68.34;77137.25;5053133;28;19924;-78
2021/05/11 04:39:14;;;;;;;;;;;;;;;-142.75;68.25;77137.25;5047591;28;19925;-78
2021/05/11 04:41:40;;;;;;;;;;;;;;;-142.75;68.34;77139.22;5048503;28;20004;-80
2021/05/11 04:44:05;;;;;;;;;;;;;;;-142.75;68.06;77149.06;5059719;28;19917;-79
2021/05/11 04:46:43;;;;;;;;;;;;;;;-142.75;68.14;77154.97;5061549;28;19916;-80
2021/05/11 04:49:08;;;;;;;;;;;;;;;-142.75;68.45;77168.75;5060026;28;19917;-80
2021/05/11 04:51:33;;;;;;;;;;;;;;;-142.75;68.36;77160.88;5044625;28;19932;-80
2021/05/11 04:53:59;;;;;;;;;;;;;;;-142.75;68.63;77158.91;5043724;28;19925;-80
2021/05/11 04:56:24;;;;;;;;;;;;;;;-142.75;68.88;77170.72;5041698;28;19917;-79
2021/05/11 04:58:49;;;;;;;;;;;;;;;-142.75;68.95;77164.81;5058387;28;20378;-80
2021/05/11 05:01:14;;;;;;;;;;;;;;;-142.75;69.04;77149.06;5059588;28;20017;-79
2021/05/11 05:03:41;;;;;;;;;;;;;;;-142.75;68.95;77129.38;5060619;28;20406;-79
2021/05/11 05:06:06;;;;;;;;;;;;;;;-142.75;69.07;77115.59;5061605;28;19924;-79
2021/05/11 05:08:31;;;;;;;;;;;;;;;-142.75;68.72;77107.72;5060245;28;19956;-79
2021/05/11 05:10:57;;;;;;;;;;;;;;;-142.75;68.54;77088.03;5059081;28;19917;-79
2021/05/11 05:13:23;;;;;;;;;;;;;;;-142.75;68.33;77091.97;5059685;28;19955;-79
2021/05/11 05:15:57;;;;;;;;;;;;;;;-142.75;68.14;77099.84;5059567;28;19923;-79
2021/05/11 05:18:23;;;;;;;;;;;;;;;-142.75;68.24;77091.97;5058123;28;19925;-79
2021/05/11 05:20:51;;;;;;;;;;;;;;;-142.75;68.21;77080.16;5057655;28;20376;-79
2021/05/11 05:23:17;;;;;;;;;;;;;;;-142.75;68.06;77068.34;5058978;28;19916;-79
2021/05/11 05:25:48;;;;;;;;;;;;;;;-142.75;68.01;77066.38;5057251;28;19921;-79
2021/05/11 05:28:13;;;;;;;;;;;;;;;-142.75;68.01;77046.69;5057381;28;20310;-79
2021/05/11 05:30:39;;;;;;;;;;;;;;;-142.75;68.03;77034.88;5057788;28;19921;-79
2021/05/11 05:33:04;;;;;;;;;;;;;;;-142.75;68.06;77021.09;5056988;28;19921;-79
2021/05/11 05:35:30;;;;;;;;;;;;;;;-142.75;67.81;77009.28;5057894;28;20442;-80
2021/05/11 05:37:55;;;;;;;;;;;;;;;-142.75;67.72;76977.78;5059092;28;19916;-78
2021/05/11 05:40:21;;;;;;;;;;;;;;;-142.75;67.62;76956.13;5058725;28;19964;-79
2021/05/11 05:42:47;;;;;;;;;;;;;;;-142.75;67.20;76922.66;5058326;28;19938;-79
2021/05/11 05:45:13;;;;;;;;;;;;;;;-142.75;66.45;76895.09;5059559;28;19948;-79
2021/05/11 05:47:50;;;;;;;;;;;;;;;-142.75;65.74;76861.63;5058872;28;20008;-79
2021/05/11 05:50:15;;;;;;;;;;;;;;;-142.75;65.25;76830.13;5058605;28;19916;-79
2021/05/11 05:52:41;;;;;;;;;;;;;;;-142.75;64.93;76790.78;5058138;28;19952;-79
2021/05/11 05:55:06;;;;;;;;;;;;;;;-142.75;64.29;76735.66;5058313;28;20530;-78
2021/05/11 05:57:31;;;;;;;;;;;;;;;-142.75;63.48;76708.09;5057093;28;19939;-79
2021/05/11 05:59:57;;;;;;;;;;;;;;;-142.75;63.04;76684.47;5060060;28;20405;-79
2021/05/11 06:02:23;;;;;;;;;;;;;;;-142.75;62.46;76678.56;5058538;28;19916;-79
2021/05/11 06:04:48;;;;;;;;;;;;;;;-142.75;62.14;76678.56;5057613;28;19940;-80
2021/05/11 06:07:14;;;;;;;;;;;;;;;-142.75;62.13;76680.53;5059188;28;19917;-79
2021/05/11 06:09:39;;;;;;;;;;;;;;;-142.75;61.58;76670.69;5055145;28;20386;-79
2021/05/11 06:12:14;;;;;;;;;;;;;;;-142.75;62.01;76672.66;5060081;28;20394;-79
2021/05/11 06:17:14;;;;;;;;;;;;;;;-142.75;60.75;76515.19;5059478;28;19921;-79
2021/05/11 06:19:42;;;;;;;;;;;;;;;-142.75;59.10;76369.50;5054603;28;19932;-79
2021/05/11 06:22:08;;;;;;;;;;;;;;;-142.75;56.05;76212.03;5036993;28;20003;-79
2021/05/11 06:24:33;;;;;;;;;;;;;;;-142.75;53.73;76086.06;5038514;28;20029;-79
2021/05/11 06:26:58;;;;;;;;;;;;;;;-142.75;51.27;75973.88;5047791;28;20518;-79
2021/05/11 06:29:26;;;;;;;;;;;;;;;-142.75;50.21;75879.41;5038944;28;19953;-79
2021/05/11 06:31:52;;;;;;;;;;;;;;;-142.75;49.44;75842.03;5035804;28;19921;-78
2021/05/11 06:34:17;;;;;;;;;;;;;;;-142.75;47.51;75775.09;5035546;28;19921;-78
2021/05/11 06:36:42;;;;;;;;;;;;;;;-142.75;45.12;75737.72;5051305;28;19916;-78
2021/05/11 06:39:10;;;;;;;;;;;;;;;-142.75;46.38;75662.94;5056065;28;20370;-77
2021/05/11 06:41:36;;;;;;;;;;;;;;;-142.75;44.07;75592.09;5055826;28;19916;-76
2021/05/11 06:44:08;;;;;;;;;;;;;;;-142.75;43.53;75540.91;5042452;28;20071;-79
2021/05/11 06:49:27;;;;;;;;;;;;;;;-142.75;41.04;75475.97;5051722;28;19924;-81
2021/05/11 06:54:37;;;;;;;;;;;;;;;-142.75;42.64;75521.22;5044100;28;20018;-78
2021/05/11 06:57:03;;;;;;;;;;;;;;;-142.75;42.76;75578.31;5044501;28;19916;-80
2021/05/11 06:59:29;;;;;;;;;;;;;;;-142.75;40.42;75517.28;5039917;28;20004;-77
2021/05/11 07:01:54;;;;;;;;;;;;;;;-142.75;42.54;75609.78;5047098;28;19917;-78
2021/05/11 07:04:19;;;;;;;;;;;;;;;-142.75;44.45;75765.25;5045378;28;20031;-77
2021/05/11 07:06:44;;;;;;;;;;;;;;;-142.75;44.49;75814.47;5041976;28;19982;-77
2021/05/11 07:09:14;;;;;;;;;;;;;;;-142.75;44.67;75836.13;5045323;28;19925;-77
2021/05/11 07:14:04;;;;;;;;;;;;;;;-142.75;46.26;75781.00;5039116;28;19925;-77
2021/05/11 07:16:29;;;;;;;;;;;;;;;-142.75;45.38;75861.69;5041452;28;19921;-77
2021/05/11 07:18:54;;;;;;;;;;;;;;;-142.75;44.73;75727.88;5036908;28;19924;-79
2021/05/11 07:21:20;;;;;;;;;;;;;;;-142.75;45.14;75605.84;5041278;28;19947;-79
2021/05/11 07:23:45;;;;;;;;;;;;;;;-142.75;44.72;75712.13;5047235;28;19917;-78
2021/05/11 07:26:31;;;;;;;;;;;;;;;-142.75;44.99;75680.63;5031993;28;19924;-77
2021/05/11 07:31:22;;;;;;;;;;;;;;;-142.75;43.05;75491.72;5032476;28;19917;-80
2021/05/11 07:33:48;;;;;;;;;;;;;;;-142.75;42.15;75523.19;5032482;28;19956;-78
2021/05/11 07:36:13;;;;;;;;;;;;;;;-142.75;43.12;75556.66;5036585;28;20394;-78
2021/05/11 07:38:39;;;;;;;;;;;;;;;-142.75;44.00;75621.59;5037106;28;19921;-78
2021/05/11 07:41:05;;;;;;;;;;;;;;;-142.75;45.05;75670.81;5030014;28;19975;-79
2021/05/11 07:43:32;;;;;;;;;;;;;;;-142.75;44.95;75729.84;5037699;28;19916;-78
2021/05/11 08:10:36;;;;;;;;;;;;;;;-142.75;42.15;75438.56;5036457;28;19928;-78
2021/05/11 08:15:53;;;;;;;;;;;;;;;-142.75;41.53;75353.97;5039493;28;19939;-78
2021/05/11 08:28:58;;;;;;;;;;;;;;;-142.75;39.44;75273.28;5041851;28;19963;-77
2021/05/11 08:31:23;;;;;;;;;;;;;;;-142.75;40.36;75292.97;5045335;28;19917;-77
2021/05/11 08:33:48;;;;;;;;;;;;;;;-142.75;40.24;75387.41;5041439;28;19925;-77
2021/05/11 08:36:13;;;;;;;;;;;;;;;-142.75;41.49;75348.06;5048685;28;19924;-76
2021/05/11 08:38:39;;;;;;;;;;;;;;;-142.75;41.51;75444.47;5045300;28;20280;-77
2021/05/11 08:41:04;;;;;;;;;;;;;;;-142.75;43.09;75515.31;5053028;28;19917;-76
2021/05/11 08:43:33;;;;;;;;;;;;;;;-142.75;42.84;75497.63;5043833;28;20346;-76
2021/05/11 08:45:59;;;;;;;;;;;;;;;-142.75;43.01;75544.84;5036737;28;20011;-76
2021/05/11 08:48:25;;;;;;;;;;;;;;;-142.75;43.73;75558.63;5044406;28;20298;-76
2021/05/11 08:50:58;;;;;;;;;;;;;;;-142.75;43.93;75597.97;5042067;28;19917;-77
2021/05/11 09:07:15;;;;;;;;;;;;;;;-142.75;45.63;75720.00;5045137;28;19966;-76
2021/05/11 09:14:05;;;;;;;;;;;;;;;-142.75;45.51;75712.13;5048471;28;19970;-76
2021/05/11 09:29:12;;;;;;;;;;;;;;;-142.75;49.79;76042.78;5044147;28;20276;-76
2021/05/11 09:31:56;;;;;;;;;;;;;;;-142.75;50.20;76074.25;5039880;28;20051;-76
2021/05/11 09:34:46;;;;;;;;;;;;;;;-142.75;51.33;76078.19;5043468;28;19921;-76
2021/05/11 09:56:46;;;;;;;;;;;;;;;-142.75;52.39;76164.81;5045751;28;19923;-77
2021/05/11 10:49:21;;;;;;;;;;;;;;;-142.75;53.50;76158.91;5086730;28;19924;-77
2021/05/11 10:52:01;;;;;;;;;;;;;;;-142.75;52.44;76125.44;5055706;28;20395;-77
2021/05/11 10:54:33;;;;;;;;;;;;;;;-142.75;52.23;76107.72;5079957;28;20309;-77
2021/05/11 10:57:01;;;;;;;;;;;;;;;-142.75;50.27;76074.25;5056441;28;20003;-76
2021/05/11 11:01:58;;;;;;;;;;;;;;;-142.75;50.58;76011.28;5077619;28;19916;-77
2021/05/11 11:04:26;;;;;;;;;;;;;;;-142.75;48.72;75999.47;5067481;28;19916;-77
2021/05/11 11:06:57;;;;;;;;;;;;;;;-142.75;47.74;76001.44;5066062;28;19920;-77
2021/05/11 11:09:26;;;;;;;;;;;;;;;-142.75;48.84;75908.94;5059648;28;19981;-78
2021/05/11 11:11:52;;;;;;;;;;;;;;;-142.75;48.92;75857.78;5082803;28;19967;-78
2021/05/11 11:14:18;;;;;;;;;;;;;;;-142.75;46.50;75808.56;5074487;28;19956;-77
2021/05/11 11:16:43;;;;;;;;;;;;;;;-142.75;46.66;75773.13;5080687;28;20006;-78
2021/05/11 11:19:09;;;;;;;;;;;;;;;-142.75;44.51;75710.16;5084559;28;19915;-78
2021/05/11 11:24:29;;;;;;;;;;;;;;;-142.75;43.88;75657.03;5074054;28;20019;-77
2021/05/11 11:26:56;;;;;;;;;;;;;;;-142.75;42.46;75566.50;5056391;28;19923;-77
2021/05/11 11:29:22;;;;;;;;;;;;;;;-142.75;42.51;75664.91;5065391;28;20443;-78
2021/05/11 11:31:47;;;;;;;;;;;;;;;-142.75;41.74;75617.66;5075767;28;19920;-76
2021/05/11 11:34:23;;;;;;;;;;;;;;;-142.75;42.96;75708.19;5084382;28;20491;-77
2021/05/11 11:36:48;;;;;;;;;;;;;;;-142.75;42.67;75635.38;5063212;28;20092;-77
2021/05/11 11:39:22;;;;;;;;;;;;;;;-142.75;41.38;75641.28;5081179;28;20020;-77
2021/05/11 11:41:48;;;;;;;;;;;;;;;-142.75;43.53;75692.44;5082538;28;19930;-78
2021/05/11 11:44:20;;;;;;;;;;;;;;;-142.75;43.48;75712.13;5082770;28;19920;-76
2021/05/11 11:46:59;;;;;;;;;;;;;;;-142.75;44.17;75664.91;5080236;28;19923;-77
2021/05/11 11:49:26;;;;;;;;;;;;;;;-142.75;44.19;75664.91;5063487;28;19915;-77
2021/05/11 11:51:59;;;;;;;;;;;;;;;-142.75;42.48;75708.19;5060289;28;19928;-77
2021/05/11 11:54:33;;;;;;;;;;;;;;;-142.75;44.34;75682.59;5065544;28;19927;-77
2021/05/11 11:59:34;;;;;;;;;;;;;;;-142.75;43.21;75643.25;5078657;28;19916;-78
2021/05/11 12:02:01;;;;;;;;;;;;;;;-142.75;41.80;75690.47;5062261;28;19923;-77
2021/05/11 12:04:26;;;;;;;;;;;;;;;-142.75;40.81;75721.97;5064038;28;19939;-77
2021/05/11 12:06:52;;;;;;;;;;;;;;;-142.75;42.80;75704.25;5082841;28;19920;-77
2021/05/11 12:09:18;;;;;;;;;;;;;;;-142.75;42.67;75714.09;5086145;28;20389;-77
2021/05/11 12:11:43;;;;;;;;;;;;;;;-142.75;44.75;75690.47;5085557;28;19942;-78
2021/05/11 12:14:09;;;;;;;;;;;;;;;-142.75;43.02;75684.56;5086938;28;20374;-77
2021/05/11 12:16:44;;;;;;;;;;;;;;;-142.75;42.19;75706.22;5070786;28;19917;-77
2021/05/11 12:19:15;;;;;;;;;;;;;;;-142.75;44.40;75727.88;5082271;28;19958;-77
2021/05/11 12:21:50;;;;;;;;;;;;;;;-142.75;43.51;75779.03;5068487;28;20289;-76
2021/05/11 12:24:15;;;;;;;;;;;;;;;-142.75;43.68;75826.28;5085376;28;19917;-77
2021/05/11 12:26:45;;;;;;;;;;;;;;;-142.75;42.06;75814.47;5068396;28;19922;-77
2021/05/11 12:29:11;;;;;;;;;;;;;;;-142.75;42.80;75861.69;5083038;28;19999;-78
2021/05/11 12:31:44;;;;;;;;;;;;;;;-142.75;43.94;75822.34;5066169;28;19917;-79
2021/05/11 12:34:11;;;;;;;;;;;;;;;-142.75;46.48;75794.78;5085762;28;20297;-77
2021/05/11 12:36:40;;;;;;;;;;;;;;;-142.75;46.18;75786.91;5069878;28;19924;-78
2021/05/11 12:39:21;;;;;;;;;;;;;;;-142.75;46.50;75794.78;5056438;28;19924;-77
2021/05/11 12:41:46;;;;;;;;;;;;;;;-142.75;47.26;75806.59;5087151;28;19942;-77
2021/05/11 12:44:28;;;;;;;;;;;;;;;-142.75;47.01;75806.59;5061223;28;19917;-76
2021/05/11 12:46:57;;;;;;;;;;;;;;;-142.75;45.65;75822.34;5056612;28;19917;-77
2021/05/11 12:49:23;;;;;;;;;;;;;;;-142.75;46.76;75834.16;5082755;28;20027;-78
2021/05/11 12:51:55;;;;;;;;;;;;;;;-142.75;47.04;75830.22;5070020;28;19960;-77
2021/05/11 12:54:26;;;;;;;;;;;;;;;-142.75;47.56;75800.69;5085717;28;19921;-75
2021/05/11 12:59:38;;;;;;;;;;;;;;;-142.75;48.62;75779.03;5083936;28;19917;-77
2021/05/11 13:02:12;;;;;;;;;;;;;;;-142.75;48.27;75773.13;5080829;28;19971;-78
2021/05/11 13:30:57;;;;;;;;;;;;;;;-142.75;46.64;75745.59;5076049;28;19923;-77
2021/05/11 13:33:31;;;;;;;;;;;;;;;-142.75;46.71;75731.81;5066238;28;19920;-77
2021/05/11 13:35:57;;;;;;;;;;;;;;;-142.75;47.43;75735.75;5074142;28;19920;-76
2021/05/11 13:38:22;;;;;;;;;;;;;;;-142.75;48.55;75735.75;5080774;28;19970;-76
2021/05/11 13:40:48;;;;;;;;;;;;;;;-142.75;46.30;75792.81;5076539;28;20581;-76
2021/05/11 13:43:14;;;;;;;;;;;;;;;-142.75;48.15;75788.88;5076307;28;19916;-77
2021/05/11 13:45:39;;;;;;;;;;;;;;;-142.75;48.37;75781.00;5086354;28;19962;-77
2021/05/11 13:48:32;;;;;;;;;;;;;;;-142.75;48.53;75779.03;5082343;28;20016;-77
2021/05/11 13:51:00;;;;;;;;;;;;;;;-142.75;48.25;75782.97;5074458;28;19923;-77
2021/05/11 13:53:28;;;;;;;;;;;;;;;-142.75;47.62;75790.84;5073613;28;20297;-77
2021/05/11 13:56:07;;;;;;;;;;;;;;;-142.75;47.89;75775.09;5085917;28;19917;-76
2021/05/11 14:04:01;;;;;;;;;;;;;;;-142.75;48.53;75802.66;5075538;28;19936;-77
2021/05/11 14:06:26;;;;;;;;;;;;;;;-142.75;48.49;75818.41;5059184;28;19947;-77
2021/05/11 14:08:52;;;;;;;;;;;;;;;-142.75;48.65;75822.34;5079725;28;20412;-77
2021/05/11 14:11:17;;;;;;;;;;;;;;;-142.75;48.28;75838.09;5075307;28;19970;-76
2021/05/11 14:13:42;;;;;;;;;;;;;;;-142.75;48.97;75836.13;5083845;28;20001;-77
2021/05/11 14:16:07;;;;;;;;;;;;;;;-142.75;48.73;75830.22;5077821;28;19928;-76
2021/05/11 14:18:32;;;;;;;;;;;;;;;-142.75;48.78;75826.28;5082244;28;19917;-76
2021/05/11 14:20:58;;;;;;;;;;;;;;;-142.75;48.49;75828.25;5085742;28;19924;-75
2021/05/11 14:23:24;;;;;;;;;;;;;;;-142.75;49.22;75824.31;5083366;28;19998;-76
2021/05/11 14:25:49;;;;;;;;;;;;;;;-142.75;48.94;75838.09;5086183;28;19931;-77
2021/05/11 14:28:14;;;;;;;;;;;;;;;-142.75;49.65;75828.25;5058334;28;19916;-76
2021/05/11 14:30:39;;;;;;;;;;;;;;;-142.75;49.38;75849.91;5074561;28;19983;-77
2021/05/11 14:33:05;;;;;;;;;;;;;;;-142.75;49.09;75869.56;5070563;28;19928;-76
2021/05/11 14:35:30;;;;;;;;;;;;;;;-142.75;49.02;75879.41;5065404;28;19915;-75
2021/05/11 14:37:55;;;;;;;;;;;;;;;-142.75;49.61;75903.03;5082233;28;20002;-77
2021/05/11 14:40:20;;;;;;;;;;;;;;;-142.75;49.88;75914.84;5092035;28;19923;-77
2021/05/11 14:42:46;;;;;;;;;;;;;;;-142.75;49.43;75930.59;5086512;28;19924;-76
2021/05/11 14:45:11;;;;;;;;;;;;;;;-142.75;49.32;75952.25;5088663;28;20290;-77
2021/05/11 14:47:37;;;;;;;;;;;;;;;-142.75;50.04;75964.03;5067522;28;20014;-76
2021/05/11 14:50:02;;;;;;;;;;;;;;;-142.75;50.80;75971.91;5073578;28;19955;-76
2021/05/11 14:52:28;;;;;;;;;;;;;;;-142.75;51.26;75983.72;5072021;28;20390;-76
2021/05/11 14:54:53;;;;;;;;;;;;;;;-142.75;50.80;75989.63;5074615;28;19916;-77
2021/05/11 14:57:18;;;;;;;;;;;;;;;-142.75;51.08;75993.56;5053980;28;19920;-76
2021/05/11 14:59:44;;;;;;;;;;;;;;;-142.75;51.55;75999.47;5089727;28;19923;-77
2021/05/11 15:02:12;;;;;;;;;;;;;;;-142.75;51.23;76003.41;5081486;28;19916;-76
2021/05/11 15:04:37;;;;;;;;;;;;;;;-142.75;51.11;76015.22;5063584;28;19923;-75
2021/05/11 15:07:02;;;;;;;;;;;;;;;-142.75;51.26;76023.09;5058336;28;20289;-76
2021/05/11 15:09:28;;;;;;;;;;;;;;;-142.75;51.00;76027.03;5085939;28;20058;-74
2021/05/11 15:11:53;;;;;;;;;;;;;;;-142.75;51.40;76027.03;5071338;28;19916;-74
2021/05/11 15:14:19;;;;;;;;;;;;;;;-142.75;51.40;76034.91;5072656;28;20404;-74
2021/05/11 15:16:45;;;;;;;;;;;;;;;-142.75;52.06;76046.72;5060827;28;20305;-75
2021/05/11 15:19:11;;;;;;;;;;;;;;;-142.75;52.94;76058.53;5055068;28;20336;-76
2021/05/11 15:21:36;;;;;;;;;;;;;;;-142.75;49.79;76109.69;5061393;28;19923;-77
2021/05/11 15:24:01;;;;;;;;;;;;;;;-142.75;45.94;76160.88;5078399;28;20023;-76
2021/05/11 15:26:30;;;;;;;;;;;;;;;-142.75;47.42;76212.03;5064857;28;19908;-74
2021/05/11 15:28:56;;;;;;;;;;;;;;;-142.75;49.20;76265.19;5062377;28;19912;-76
2021/05/11 15:31:21;;;;;;;;;;;;;;;-142.75;50.75;76324.25;5071282;28;19918;-76
2021/05/11 15:33:46;;;;;;;;;;;;;;;-142.75;52.44;76399.03;5068865;28;19924;-82
2021/05/11 15:36:11;;;;;;;;;;;;;;;-142.75;54.64;76456.13;5061863;28;19920;-80
2021/05/11 15:38:36;;;;;;;;;;;;;;;-142.75;55.79;76509.28;5090445;28;19916;-81
2021/05/11 15:41:03;;;;;;;;;;;;;;;-142.75;56.07;76597.84;5072775;28;21271;-83
2021/05/11 15:43:28;;;;;;;;;;;;;;;-142.75;59.19;76621.47;5071463;28;19966;-81
2021/05/11 15:45:54;;;;;;;;;;;;;;;-142.75;58.66;76637.22;5084503;28;20478;-79
2021/05/11 15:48:19;;;;;;;;;;;;;;;-142.75;59.78;76641.16;5067969;28;19922;-78
2021/05/11 15:50:46;;;;;;;;;;;;;;;-142.75;60.35;76678.56;5070206;28;19944;-82
2021/05/11 15:53:12;;;;;;;;;;;;;;;-142.75;59.69;76723.84;5085458;28;19921;-80
2021/05/11 15:55:39;;;;;;;;;;;;;;;-142.75;59.63;76771.09;5087407;28;19921;-78
2021/05/11 15:58:05;;;;;;;;;;;;;;;-142.75;61.17;76786.84;5070473;28;19916;-78
2021/05/11 16:00:31;;;;;;;;;;;;;;;-142.75;59.41;76775.03;5089603;28;19924;-80
2021/05/11 16:02:58;;;;;;;;;;;;;;;-142.75;58.88;76778.97;5072835;28;20373;-79
2021/05/11 16:05:23;;;;;;;;;;;;;;;-142.75;62.15;76771.09;5075246;28;20007;-80
2021/05/11 16:07:51;;;;;;;;;;;;;;;-142.75;61.00;76763.22;5089659;28;20024;-80
2021/05/11 16:10:16;;;;;;;;;;;;;;;-142.75;63.39;76733.69;5063449;28;19916;-81
2021/05/11 16:12:41;;;;;;;;;;;;;;;-142.75;62.96;76735.66;5084542;28;19938;-82
2021/05/11 16:15:08;;;;;;;;;;;;;;;-142.75;63.28;76708.09;5063174;28;19921;-80
2021/05/11 16:17:33;;;;;;;;;;;;;;;-142.75;61.58;76690.38;5071233;28;19924;-81
2021/05/11 16:19:58;;;;;;;;;;;;;;;-142.75;60.79;76682.50;5070391;28;19923;-82
2021/05/11 16:22:23;;;;;;;;;;;;;;;-142.75;57.23;76696.28;5073579;28;19916;-81
2021/05/11 16:24:49;;;;;;;;;;;;;;;-142.75;60.84;76698.25;5065668;28;19916;-80
2021/05/11 16:27:14;;;;;;;;;;;;;;;-142.75;60.28;76696.28;5085390;28;19924;-78
2021/05/11 16:29:39;;;;;;;;;;;;;;;-142.75;61.85;76672.66;5067086;28;19920;-80
2021/05/11 16:32:05;;;;;;;;;;;;;;;-142.75;61.38;76666.75;5068064;28;19993;-79
2021/05/11 16:34:31;;;;;;;;;;;;;;;-142.75;57.84;76676.59;5065599;28;19919;-80
2021/05/11 16:36:56;;;;;;;;;;;;;;;-142.75;60.64;76652.97;5086663;28;19925;-82